createdAt,value
2022-09-27T00:01:13.333Z,2.50
2022-09-27T00:03:40.896Z,2.30
2022-09-27T00:06:20.857Z,2.30
2022-09-27T00:08:48.070Z,2.45
2022-09-27T00:11:27.174Z,2.47
2022-09-27T00:13:56.044Z,2.40
2022-09-27T00:16:25.243Z,2.53
2022-09-27T00:18:52.568Z,2.13
2022-09-27T00:21:20.113Z,2.13
2022-09-27T00:23:47.906Z,2.53
2022-09-27T00:26:15.205Z,2.15
2022-09-27T00:28:42.908Z,2.20
2022-09-27T00:31:22.764Z,2.35
2022-09-27T00:33:52.460Z,2.80
2022-09-27T00:36:22.594Z,2.53
2022-09-27T00:38:50.566Z,2.50
2022-09-27T00:41:23.550Z,2.40
2022-09-27T00:44:04.510Z,2.47
2022-09-27T00:46:34.800Z,2.15
2022-09-27T00:49:13.715Z,2.30
2022-09-27T00:51:43.045Z,2.60
2022-09-27T00:54:13.267Z,2.58
2022-09-27T00:56:42.239Z,2.25
2022-09-27T00:59:17.433Z,2.50
2022-09-27T01:01:45.288Z,2.50
2022-09-27T01:04:15.307Z,2.35
2022-09-27T01:06:42.924Z,2.30
2022-09-27T01:09:12.479Z,2.50
2022-09-27T01:11:54.572Z,2.47
2022-09-27T01:14:33.430Z,2.60
2022-09-27T01:17:28.416Z,2.50
2022-09-27T01:20:18.195Z,2.38
2022-09-27T01:23:22.914Z,2.45
2022-09-27T01:26:08.639Z,2.60
2022-09-27T01:28:54.576Z,2.25
2022-09-27T01:31:46.098Z,2.70
2022-09-27T01:34:32.248Z,2.58
2022-09-27T01:37:23.399Z,2.45
2022-09-27T01:40:04.679Z,2.50
2022-09-27T01:43:06.469Z,2.50
2022-09-27T01:46:02.601Z,2.50
2022-09-27T01:48:51.351Z,2.42
2022-09-27T01:51:33.589Z,2.40
2022-09-27T01:54:04.395Z,2.20
2022-09-27T01:57:04.132Z,2.10
2022-09-27T01:59:45.574Z,2.42
2022-09-27T02:02:38.612Z,2.22
2022-09-27T02:05:31.290Z,2.33
2022-09-27T02:08:28.370Z,2.20
2022-09-27T02:11:01.931Z,1.80
2022-09-27T02:13:41.885Z,2.05
2022-09-27T02:16:52.096Z,2.22
2022-09-27T02:19:47.960Z,2.20
2022-09-27T02:22:42.524Z,2.10
2022-09-27T02:25:25.410Z,2.20
2022-09-27T02:28:10.671Z,2.55
2022-09-27T02:30:40.425Z,2.50
2022-09-27T02:33:23.560Z,2.00
2022-09-27T02:35:52.259Z,2.22
2022-09-27T02:38:20.573Z,2.30
2022-09-27T02:40:48.862Z,2.35
2022-09-27T02:43:19.253Z,2.30
2022-09-27T02:45:58.647Z,2.20
2022-09-27T02:48:39.276Z,2.50
2022-09-27T02:51:43.376Z,2.22
2022-09-27T02:54:25.172Z,2.20
2022-09-27T02:57:58.100Z,2.60
2022-09-27T03:01:06.427Z,2.50
2022-09-27T03:04:21.178Z,2.30
2022-09-27T03:06:49.721Z,3.00
2022-09-27T03:09:22.532Z,2.60
2022-09-27T03:11:51.333Z,2.67
2022-09-27T03:14:18.688Z,2.50
2022-09-27T03:16:57.881Z,2.70
2022-09-27T03:19:52.921Z,2.80
2022-09-27T03:22:39.172Z,2.75
2022-09-27T03:25:07.833Z,2.60
2022-09-27T03:27:35.291Z,2.53
2022-09-27T03:30:02.689Z,2.40
2022-09-27T03:32:31.445Z,2.55
2022-09-27T03:35:23.017Z,2.40
2022-09-27T03:37:50.786Z,2.45
2022-09-27T03:40:18.331Z,2.70
2022-09-27T03:42:49.577Z,2.70
2022-09-27T03:45:18.119Z,2.47
2022-09-27T03:47:45.900Z,2.58
2022-09-27T03:50:15.339Z,2.60
2022-09-27T03:52:44.384Z,2.67
2022-09-27T03:55:12.815Z,2.85
2022-09-27T03:57:40.513Z,2.95
2022-09-27T04:00:10.834Z,2.35
2022-09-27T04:02:42.970Z,2.80
2022-09-27T04:05:27.770Z,2.80
2022-09-27T04:08:02.451Z,2.70
2022-09-27T04:10:32.456Z,3.00
2022-09-27T04:12:59.957Z,2.90
2022-09-27T04:15:31.856Z,2.83
2022-09-27T04:18:18.347Z,2.70
2022-09-27T04:21:04.411Z,2.90
2022-09-27T04:23:34.163Z,3.08
2022-09-27T04:26:06.447Z,3.20
2022-09-27T04:28:54.555Z,2.60
2022-09-27T04:31:23.372Z,2.60
2022-09-27T04:33:55.291Z,3.20
2022-09-27T04:36:30.317Z,2.63
2022-09-27T04:39:10.706Z,2.75
2022-09-27T04:41:41.264Z,2.88
2022-09-27T04:44:08.466Z,2.88
2022-09-27T04:46:36.478Z,2.92
2022-09-27T04:49:04.716Z,3.00
2022-09-27T04:51:34.924Z,2.92
2022-09-27T04:54:02.625Z,3.30
2022-09-27T04:56:34.716Z,3.47
2022-09-27T04:59:08.313Z,3.47
2022-09-27T05:01:39.878Z,3.33
2022-09-27T05:04:15.539Z,3.00
2022-09-27T05:06:52.480Z,3.00
2022-09-27T05:09:29.256Z,3.13
2022-09-27T05:11:59.428Z,3.17
2022-09-27T05:14:32.675Z,2.95
2022-09-27T05:17:19.273Z,2.70
2022-09-27T05:20:06.246Z,2.65
2022-09-27T05:22:57.164Z,2.80
2022-09-27T05:25:26.251Z,2.70
2022-09-27T05:28:00.443Z,2.70
2022-09-27T05:30:27.971Z,2.70
2022-09-27T05:33:05.312Z,2.65
2022-09-27T05:35:55.914Z,2.28
2022-09-27T05:38:27.064Z,2.63
2022-09-27T05:40:57.704Z,2.42
2022-09-27T05:43:25.975Z,2.28
2022-09-27T05:45:54.130Z,2.25
2022-09-27T05:48:22.368Z,3.42
2022-09-27T05:50:57.541Z,2.97
2022-09-27T05:53:25.702Z,2.80
2022-09-27T05:55:55.056Z,3.35
2022-09-27T05:58:30.668Z,2.88
2022-09-27T06:01:19.330Z,2.35
2022-09-27T06:04:07.067Z,2.50
2022-09-27T06:06:59.161Z,2.50
2022-09-27T06:09:27.600Z,2.45
2022-09-27T06:11:57.105Z,2.50
2022-09-27T06:14:24.702Z,3.42
2022-09-27T06:17:07.080Z,2.72
2022-09-27T06:19:36.802Z,3.00
2022-09-27T06:22:04.945Z,2.70
2022-09-27T06:24:45.790Z,3.20
2022-09-27T06:27:20.136Z,3.00
2022-09-27T06:29:56.504Z,2.92
2022-09-27T06:32:42.694Z,3.03
2022-09-27T06:35:36.244Z,3.08
2022-09-27T06:38:09.370Z,2.50
2022-09-27T06:40:41.072Z,2.70
2022-09-27T06:43:21.080Z,2.90
2022-09-27T06:46:06.108Z,2.50
2022-09-27T06:48:57.277Z,3.00
2022-09-27T06:51:24.958Z,3.38
2022-09-27T06:53:52.466Z,2.90
2022-09-27T06:56:20.422Z,3.30
2022-09-27T06:59:08.616Z,2.92
2022-09-27T07:01:44.623Z,3.40
2022-09-27T07:04:31.455Z,2.95
2022-09-27T07:07:10.307Z,3.55
2022-09-27T07:09:44.797Z,4.68
2022-09-27T07:12:13.641Z,4.40
2022-09-27T07:14:44.240Z,3.50
2022-09-27T07:17:15.091Z,3.40
2022-09-27T07:19:47.725Z,2.88
2022-09-27T07:22:18.066Z,2.55
2022-09-27T07:24:48.542Z,2.85
2022-09-27T07:27:16.778Z,2.90
2022-09-27T07:29:44.687Z,3.08
2022-09-27T07:32:12.572Z,2.45
2022-09-27T07:34:39.947Z,2.88
2022-09-27T07:37:08.094Z,2.60
2022-09-27T07:39:39.338Z,2.55
2022-09-27T07:42:06.913Z,2.58
2022-09-27T07:44:37.089Z,2.53
2022-09-27T07:47:20.141Z,2.58
2022-09-27T07:50:07.494Z,3.10
2022-09-27T07:52:58.192Z,3.00
2022-09-27T07:55:55.993Z,3.38
2022-09-27T07:58:25.455Z,2.97
2022-09-27T08:00:57.049Z,3.20
2022-09-27T08:03:24.353Z,3.10
2022-09-27T08:05:51.595Z,3.08
2022-09-27T08:08:18.859Z,3.40
2022-09-27T08:10:48.343Z,3.58
2022-09-27T08:13:20.742Z,3.25
2022-09-27T08:15:52.746Z,3.35
2022-09-27T08:18:22.322Z,3.67
2022-09-27T08:21:08.731Z,3.17
2022-09-27T08:23:43.237Z,3.08
2022-09-27T08:26:29.335Z,3.20
2022-09-27T08:29:11.520Z,2.78
2022-09-27T08:31:43.869Z,3.65
2022-09-27T08:34:11.483Z,3.53
2022-09-27T08:36:38.703Z,2.45
2022-09-27T08:39:05.999Z,2.58
2022-09-27T08:41:48.084Z,2.40
2022-09-27T08:44:36.854Z,2.15
2022-09-27T08:47:20.762Z,2.15
2022-09-27T08:50:02.585Z,2.15
2022-09-27T08:52:37.111Z,1.98
2022-09-27T08:55:38.048Z,2.50
2022-09-27T08:58:22.445Z,2.20
2022-09-27T09:01:14.985Z,2.20
2022-09-27T09:03:55.987Z,1.63
2022-09-27T09:06:58.369Z,1.80
2022-09-27T09:10:01.097Z,1.65
2022-09-27T09:12:49.122Z,1.80
2022-09-27T09:15:34.038Z,1.50
2022-09-27T09:18:33.425Z,1.70
2022-09-27T09:21:28.249Z,1.75
2022-09-27T09:24:23.704Z,1.52
2022-09-27T09:27:05.659Z,1.70
2022-09-27T09:29:59.014Z,1.80
2022-09-27T09:32:35.734Z,1.60
2022-09-27T09:35:12.964Z,1.90
2022-09-27T09:38:06.120Z,2.00
2022-09-27T09:40:49.301Z,2.00
2022-09-27T09:43:34.162Z,1.90
2022-09-27T09:51:22.478Z,2.22
2022-09-27T09:54:07.256Z,1.90
2022-09-27T09:56:47.776Z,1.48
2022-09-27T09:59:27.135Z,1.30
2022-09-27T10:01:58.839Z,1.73
2022-09-27T10:04:29.430Z,1.52
2022-09-27T10:07:01.185Z,1.48
2022-09-27T10:09:33.996Z,1.70
2022-09-27T10:12:37.944Z,1.50
2022-09-27T10:15:07.306Z,1.65
2022-09-27T10:17:42.129Z,1.55
2022-09-27T10:20:39.050Z,1.40
2022-09-27T10:26:05.686Z,1.52
2022-09-27T10:28:43.649Z,1.33
2022-09-27T10:31:19.616Z,1.52
2022-09-27T10:34:30.085Z,1.42
2022-09-27T10:37:07.390Z,1.30
2022-09-27T10:42:22.081Z,1.27
2022-09-27T10:44:50.306Z,1.20
2022-09-27T10:47:30.127Z,1.20
2022-09-27T10:50:50.635Z,1.40
2022-09-27T10:53:24.079Z,1.25
2022-09-27T10:56:02.362Z,1.27
2022-09-27T10:58:38.842Z,1.20
2022-09-27T11:01:13.028Z,1.40
2022-09-27T11:04:00.992Z,1.35
2022-09-27T11:06:33.471Z,1.27
2022-09-27T11:09:19.365Z,1.40
2022-09-27T11:11:49.253Z,1.40
2022-09-27T11:14:21.421Z,1.40
2022-09-27T11:16:57.828Z,1.30
2022-09-27T11:19:36.529Z,1.38
2022-09-27T11:22:10.923Z,1.10
2022-09-27T11:25:01.667Z,1.15
2022-09-27T11:27:38.379Z,1.20
2022-09-27T11:30:08.893Z,1.35
2022-09-27T11:33:24.919Z,1.20
2022-09-27T11:36:04.752Z,1.40
2022-09-27T11:38:52.761Z,1.45
2022-09-27T11:41:26.446Z,1.40
2022-09-27T11:44:18.223Z,1.60
2022-09-27T11:47:11.446Z,1.48
2022-09-27T11:50:00.072Z,1.58
2022-09-27T11:53:06.846Z,1.73
2022-09-27T11:56:15.110Z,1.55
2022-09-27T11:59:00.091Z,1.40
2022-09-27T12:01:34.308Z,1.10
2022-09-27T12:04:04.548Z,1.20
2022-09-27T12:06:35.172Z,1.30
2022-09-27T12:09:14.553Z,1.00
2022-09-27T12:11:51.765Z,1.20
2022-09-27T12:14:38.977Z,1.35
2022-09-27T12:17:13.087Z,1.00
2022-09-27T12:19:51.067Z,1.20
2022-09-27T12:22:53.829Z,1.10
2022-09-27T12:25:21.076Z,1.25
2022-09-27T12:28:27.964Z,1.05
2022-09-27T12:31:28.391Z,1.15
2022-09-27T12:34:00.445Z,1.05
2022-09-27T12:36:38.333Z,1.15
2022-09-27T12:39:16.188Z,1.17
2022-09-27T12:42:01.341Z,1.13
2022-09-27T12:44:41.511Z,1.20
2022-09-27T12:47:16.071Z,1.23
2022-09-27T12:50:01.423Z,1.15
2022-09-27T12:52:38.838Z,1.40
2022-09-27T12:55:30.678Z,1.63
2022-09-27T12:58:32.417Z,1.55
2022-09-27T13:01:08.035Z,1.55
2022-09-27T13:03:53.352Z,1.40
2022-09-27T13:06:58.188Z,1.63
2022-09-27T13:09:42.211Z,1.35
2022-09-27T13:12:14.719Z,1.75
2022-09-27T13:14:51.943Z,1.40
2022-09-27T13:17:53.603Z,1.50
2022-09-27T13:20:36.711Z,1.70
2022-09-27T13:23:20.172Z,1.65
2022-09-27T13:28:50.215Z,2.22
2022-09-27T13:31:55.611Z,2.05
2022-09-27T13:34:46.441Z,1.77
2022-09-27T13:37:45.687Z,1.88
2022-09-27T13:40:33.037Z,1.45
2022-09-27T13:43:29.892Z,1.45
2022-09-27T13:46:17.154Z,1.40
2022-09-27T13:48:56.492Z,1.30
2022-09-27T13:51:46.155Z,1.50
2022-09-27T13:54:51.459Z,1.50
2022-09-27T13:57:47.029Z,1.70
2022-09-27T14:00:23.096Z,1.70
2022-09-27T14:02:59.628Z,1.70
2022-09-27T14:06:05.416Z,1.95
2022-09-27T14:08:52.871Z,1.98
2022-09-27T14:11:38.133Z,2.00
2022-09-27T14:14:14.260Z,2.20
2022-09-27T14:16:47.688Z,2.20
2022-09-27T14:19:20.021Z,2.20
2022-09-27T14:22:11.414Z,2.13
2022-09-27T14:24:54.904Z,2.08
2022-09-27T14:27:36.029Z,2.05
2022-09-27T14:30:22.659Z,1.90
2022-09-27T14:33:00.858Z,1.73
2022-09-27T14:36:07.034Z,1.88
2022-09-27T14:38:39.196Z,2.03
2022-09-27T14:41:16.653Z,2.15
2022-09-27T14:43:46.177Z,2.17
2022-09-27T14:46:34.166Z,2.83
2022-09-27T14:49:20.939Z,2.60
2022-09-27T14:51:55.642Z,2.90
2022-09-27T14:54:26.947Z,2.90
2022-09-27T14:56:56.396Z,3.05
2022-09-27T14:59:34.802Z,2.92
2022-09-27T15:02:10.639Z,3.00
2022-09-27T15:04:38.741Z,3.45
2022-09-27T15:07:06.274Z,3.75
2022-09-27T15:09:35.161Z,4.30
2022-09-27T15:12:05.532Z,3.50
2022-09-27T15:14:34.067Z,3.72
2022-09-27T15:17:06.355Z,5.30
2022-09-27T15:19:35.066Z,5.40
2022-09-27T15:22:24.984Z,5.32
2022-09-27T15:24:52.670Z,5.95
2022-09-27T15:27:24.317Z,5.15
2022-09-27T15:29:54.180Z,5.82
2022-09-27T15:32:27.381Z,5.95
2022-09-27T15:34:57.379Z,5.78
2022-09-27T15:37:40.347Z,5.95
2022-09-27T15:40:33.802Z,5.45
2022-09-27T15:43:02.936Z,4.88
2022-09-27T15:45:34.054Z,4.50
2022-09-27T15:48:15.629Z,4.45
2022-09-27T15:50:43.778Z,4.00
2022-09-27T15:53:11.406Z,4.15
2022-09-27T15:55:45.464Z,4.50
2022-09-27T15:58:17.014Z,4.38
2022-09-27T16:01:08.345Z,4.90
2022-09-27T16:03:35.720Z,5.38
2022-09-27T16:06:05.207Z,5.05
2022-09-27T16:08:32.495Z,4.63
2022-09-27T16:11:00.613Z,3.80
2022-09-27T16:13:33.139Z,4.18
2022-09-27T16:16:03.841Z,4.03
2022-09-27T16:18:32.916Z,5.57
2022-09-27T16:21:00.621Z,5.93
2022-09-27T16:23:29.265Z,6.40
2022-09-27T16:25:56.398Z,6.13
2022-09-27T16:28:23.668Z,5.05
2022-09-27T16:30:50.902Z,4.85
2022-09-27T16:33:18.554Z,5.20
2022-09-27T16:35:45.743Z,4.47
2022-09-27T16:38:13.508Z,4.25
2022-09-27T16:40:40.659Z,4.22
2022-09-27T16:43:08.742Z,4.22
2022-09-27T16:45:36.805Z,4.15
2022-09-27T16:48:04.428Z,3.65
2022-09-27T16:50:50.113Z,3.95
2022-09-27T16:53:17.697Z,3.90
2022-09-27T16:55:46.273Z,4.07
2022-09-27T16:58:17.820Z,4.47
2022-09-27T17:00:45.592Z,4.82
2022-09-27T17:03:13.195Z,4.13
2022-09-27T17:05:43.607Z,3.78
2022-09-27T17:08:10.993Z,3.75
2022-09-27T17:10:38.834Z,3.75
2022-09-27T17:13:07.105Z,3.80
2022-09-27T17:15:34.282Z,3.63
2022-09-27T17:18:01.463Z,3.78
2022-09-27T17:20:31.106Z,3.70
2022-09-27T17:22:59.106Z,3.60
2022-09-27T17:25:26.469Z,3.70
2022-09-27T17:27:53.759Z,3.88
2022-09-27T17:30:21.165Z,3.47
2022-09-27T17:32:48.684Z,3.92
2022-09-27T17:35:16.250Z,3.60
2022-09-27T17:37:43.938Z,4.00
2022-09-27T17:40:12.580Z,3.70
2022-09-27T17:42:40.078Z,3.60
2022-09-27T17:45:07.841Z,4.07
2022-09-27T17:47:53.414Z,3.35
2022-09-27T17:50:28.806Z,4.20
2022-09-27T17:52:58.797Z,4.10
2022-09-27T17:55:26.759Z,3.78
2022-09-27T17:57:53.942Z,3.83
2022-09-27T18:00:21.256Z,3.63
2022-09-27T18:02:48.945Z,4.40
2022-09-27T18:05:21.258Z,3.97
2022-09-27T18:07:49.210Z,4.22
2022-09-27T18:10:20.194Z,3.45
2022-09-27T18:12:47.842Z,3.40
2022-09-27T18:15:16.930Z,3.67
2022-09-27T18:17:46.067Z,4.15
2022-09-27T18:20:15.012Z,3.80
2022-09-27T18:22:42.159Z,3.90
2022-09-27T18:25:12.657Z,3.78
2022-09-27T18:27:41.239Z,3.70
2022-09-27T18:30:09.571Z,3.80
2022-09-27T18:32:36.671Z,3.67
2022-09-27T18:35:04.869Z,3.72
2022-09-27T18:37:32.107Z,3.83
2022-09-27T18:39:59.182Z,3.78
2022-09-27T18:42:26.469Z,3.45
2022-09-27T18:44:53.920Z,3.55
2022-09-27T18:47:21.090Z,3.50
2022-09-27T18:49:48.867Z,3.53
2022-09-27T18:52:15.982Z,3.40
2022-09-27T18:54:44.092Z,3.38
2022-09-27T18:57:11.688Z,3.47
2022-09-27T18:59:39.973Z,3.55
2022-09-27T19:02:07.479Z,3.40
2022-09-27T19:04:34.902Z,3.50
2022-09-27T19:07:03.303Z,3.50
2022-09-27T19:09:31.411Z,3.53
2022-09-27T19:11:59.993Z,3.20
2022-09-27T19:14:27.997Z,3.50
2022-09-27T19:16:55.436Z,3.20
2022-09-27T19:19:22.890Z,3.13
2022-09-27T19:21:50.607Z,3.33
2022-09-27T19:24:21.657Z,3.00
2022-09-27T19:26:50.110Z,3.00
2022-09-27T19:29:18.452Z,3.22
2022-09-27T19:31:46.677Z,3.15
2022-09-27T19:34:13.973Z,3.13
2022-09-27T19:36:41.212Z,3.90
2022-09-27T19:39:08.503Z,3.00
2022-09-27T19:41:35.759Z,3.38
2022-09-27T19:44:03.855Z,3.42
2022-09-27T19:46:31.703Z,3.35
2022-09-27T19:49:00.444Z,3.50
2022-09-27T19:51:29.838Z,2.90
2022-09-27T19:53:57.771Z,3.10
2022-09-27T19:56:26.281Z,3.22
2022-09-27T19:58:54.664Z,3.25
2022-09-27T20:01:24.393Z,3.40
2022-09-27T20:03:53.763Z,2.88
2022-09-27T20:06:22.919Z,3.10
2022-09-27T20:08:50.546Z,3.10
2022-09-27T20:11:20.864Z,3.00
2022-09-27T20:13:49.970Z,2.90
2022-09-27T20:16:22.573Z,3.03
2022-09-27T20:18:52.376Z,3.40
2022-09-27T20:21:21.724Z,2.88
2022-09-27T20:23:56.312Z,3.08
2022-09-27T20:26:25.646Z,3.22
2022-09-27T20:28:55.285Z,3.60
2022-09-27T20:31:30.508Z,3.38
2022-09-27T20:33:57.790Z,3.60
2022-09-27T20:36:28.376Z,3.08
2022-09-27T20:39:02.536Z,3.30
2022-09-27T20:41:34.057Z,3.35
2022-09-27T20:44:04.325Z,4.00
2022-09-27T20:46:32.605Z,3.70
2022-09-27T20:49:03.265Z,3.33
2022-09-27T20:51:33.167Z,3.47
2022-09-27T20:54:01.690Z,3.40
2022-09-27T20:56:35.758Z,3.60
2022-09-27T20:59:17.357Z,3.47
2022-09-27T21:01:46.311Z,3.83
2022-09-27T21:04:17.079Z,3.90
2022-09-27T21:06:44.908Z,4.28
2022-09-27T21:09:19.353Z,3.53
2022-09-27T21:14:14.871Z,3.75
2022-09-27T21:16:42.373Z,4.20
2022-09-27T21:19:10.084Z,4.82
2022-09-27T21:21:37.690Z,3.97
2022-09-27T21:24:05.178Z,4.20
2022-09-27T21:26:34.151Z,4.97
2022-09-27T21:29:06.938Z,5.30
2022-09-27T21:31:34.862Z,5.15
2022-09-27T21:34:05.767Z,5.22
2022-09-27T21:36:35.438Z,5.97
2022-09-27T21:39:04.233Z,5.03
2022-09-27T21:41:31.595Z,6.03
2022-09-27T21:43:58.808Z,5.63
2022-09-27T21:46:28.274Z,5.90
2022-09-27T21:48:58.022Z,6.95
2022-09-27T21:51:28.350Z,4.80
2022-09-27T21:53:58.672Z,5.80
2022-09-27T21:56:27.674Z,5.97
2022-09-27T21:58:55.235Z,5.05
2022-09-27T22:01:24.998Z,5.00
2022-09-27T22:03:54.330Z,10.35
2022-09-27T22:06:27.667Z,7.18
2022-09-27T22:08:57.516Z,5.63
2022-09-27T22:11:30.268Z,4.70
2022-09-27T22:13:57.405Z,4.72
2022-09-27T22:16:27.102Z,4.30
2022-09-27T22:18:57.204Z,4.20
2022-09-27T22:21:27.567Z,4.80
2022-09-27T22:24:02.882Z,4.60
2022-09-27T22:26:37.109Z,4.55
2022-09-27T22:29:05.455Z,4.68
2022-09-27T22:31:32.824Z,4.53
2022-09-27T22:34:05.723Z,4.85
2022-09-27T22:36:35.129Z,3.53
2022-09-27T22:39:02.728Z,3.80
2022-09-27T22:41:30.582Z,3.50
2022-09-27T22:43:58.275Z,3.92
2022-09-27T22:46:26.298Z,3.70
2022-09-27T22:48:53.849Z,4.25
2022-09-27T22:51:21.657Z,4.25
2022-09-27T22:53:48.989Z,4.20
2022-09-27T22:56:18.601Z,3.95
2022-09-27T22:58:47.568Z,4.20
2022-09-27T23:01:17.784Z,3.80
2022-09-27T23:03:47.331Z,4.32
2022-09-27T23:06:16.094Z,4.07
2022-09-27T23:08:43.904Z,4.30
2022-09-27T23:11:22.889Z,4.45
2022-09-27T23:13:51.111Z,3.75
2022-09-27T23:16:27.030Z,3.75
2022-09-27T23:18:56.800Z,3.47
2022-09-27T23:21:26.438Z,3.78
2022-09-27T23:23:59.796Z,4.35
2022-09-27T23:26:28.352Z,4.55
2022-09-27T23:28:57.612Z,4.15
2022-09-27T23:31:26.985Z,3.80
2022-09-27T23:33:54.620Z,4.30
2022-09-27T23:36:28.329Z,3.75
2022-09-27T23:38:59.186Z,3.80
2022-09-27T23:41:26.501Z,3.42
2022-09-27T23:43:54.585Z,3.50
2022-09-27T23:46:21.990Z,3.42
2022-09-27T23:48:49.280Z,3.55
2022-09-27T23:51:16.388Z,4.03
2022-09-27T23:53:44.683Z,3.92
2022-09-27T23:56:17.060Z,4.18
2022-09-27T23:58:46.108Z,3.40
